sensor_id;sensor_type;location;lat;lon;timestamp;P1;durP1;ratioP1;P2;durP2;ratioP2
22007;SDS011;11168;56.976;24.168;2022-09-17T00:01:42;3.97;;;2.42;;
22007;SDS011;11168;56.976;24.168;2022-09-17T00:04:10;5.30;;;2.22;;
22007;SDS011;11168;56.976;24.168;2022-09-17T00:06:38;5.07;;;2.17;;
22007;SDS011;11168;56.976;24.168;2022-09-17T00:09:06;4.45;;;1.90;;
22007;SDS011;11168;56.976;24.168;2022-09-17T00:11:34;6.07;;;2.13;;
22007;SDS011;11168;56.976;24.168;2022-09-17T00:14:03;6.72;;;1.60;;
22007;SDS011;11168;56.976;24.168;2022-09-17T00:16:33;3.20;;;1.63;;
22007;SDS011;11168;56.976;24.168;2022-09-17T00:19:01;3.97;;;1.50;;
22007;SDS011;11168;56.976;24.168;2022-09-17T00:21:29;4.85;;;1.85;;
22007;SDS011;11168;56.976;24.168;2022-09-17T00:23:57;5.70;;;1.80;;
22007;SDS011;11168;56.976;24.168;2022-09-17T00:26:25;3.75;;;1.50;;
22007;SDS011;11168;56.976;24.168;2022-09-17T00:28:54;5.68;;;1.65;;
22007;SDS011;11168;56.976;24.168;2022-09-17T00:31:21;4.07;;;1.45;;
22007;SDS011;11168;56.976;24.168;2022-09-17T00:33:49;3.83;;;1.40;;
22007;SDS011;11168;56.976;24.168;2022-09-17T00:36:16;8.77;;;1.60;;
22007;SDS011;11168;56.976;24.168;2022-09-17T00:38:49;2.67;;;1.40;;
22007;SDS011;11168;56.976;24.168;2022-09-17T00:43:45;4.97;;;1.50;;
22007;SDS011;11168;56.976;24.168;2022-09-17T00:49:00;5.15;;;1.52;;
22007;SDS011;11168;56.976;24.168;2022-09-17T00:51:35;3.58;;;1.45;;
22007;SDS011;11168;56.976;24.168;2022-09-17T00:54:03;2.55;;;1.20;;
22007;SDS011;11168;56.976;24.168;2022-09-17T00:56:33;2.72;;;1.42;;
22007;SDS011;11168;56.976;24.168;2022-09-17T00:59:01;2.65;;;1.30;;
22007;SDS011;11168;56.976;24.168;2022-09-17T01:01:29;5.25;;;1.52;;
22007;SDS011;11168;56.976;24.168;2022-09-17T01:03:57;5.38;;;1.73;;
22007;SDS011;11168;56.976;24.168;2022-09-17T01:06:28;4.32;;;1.45;;
22007;SDS011;11168;56.976;24.168;2022-09-17T01:09:06;3.95;;;1.50;;
22007;SDS011;11168;56.976;24.168;2022-09-17T01:32:31;4.57;;;2.22;;
22007;SDS011;11168;56.976;24.168;2022-09-17T01:45:14;4.65;;;2.65;;
22007;SDS011;11168;56.976;24.168;2022-09-17T01:50:15;7.50;;;2.70;;
22007;SDS011;11168;56.976;24.168;2022-09-17T01:52:44;8.85;;;3.38;;
22007;SDS011;11168;56.976;24.168;2022-09-17T01:55:15;3.75;;;2.60;;
22007;SDS011;11168;56.976;24.168;2022-09-17T02:00:13;5.50;;;3.10;;
22007;SDS011;11168;56.976;24.168;2022-09-17T02:02:46;4.75;;;3.13;;
22007;SDS011;11168;56.976;24.168;2022-09-17T02:05:26;5.95;;;3.10;;
22007;SDS011;11168;56.976;24.168;2022-09-17T02:07:57;4.20;;;3.23;;
22007;SDS011;11168;56.976;24.168;2022-09-17T02:10:26;6.55;;;3.45;;
22007;SDS011;11168;56.976;24.168;2022-09-17T02:12:55;4.57;;;3.13;;
22007;SDS011;11168;56.976;24.168;2022-09-17T02:15:28;4.95;;;3.38;;
22007;SDS011;11168;56.976;24.168;2022-09-17T02:18:23;6.13;;;3.42;;
22007;SDS011;11168;56.976;24.168;2022-09-17T02:20:46;8.05;;;3.53;;
22007;SDS011;11168;56.976;24.168;2022-09-17T02:23:15;4.28;;;3.35;;
22007;SDS011;11168;56.976;24.168;2022-09-17T02:25:49;5.65;;;3.78;;
22007;SDS011;11168;56.976;24.168;2022-09-17T02:28:24;6.55;;;3.58;;
22007;SDS011;11168;56.976;24.168;2022-09-17T02:30:53;6.65;;;3.42;;
22007;SDS011;11168;56.976;24.168;2022-09-17T02:33:20;6.85;;;3.67;;
22007;SDS011;11168;56.976;24.168;2022-09-17T02:35:48;7.57;;;4.00;;
22007;SDS011;11168;56.976;24.168;2022-09-17T02:38:23;10.18;;;3.80;;
22007;SDS011;11168;56.976;24.168;2022-09-17T02:40:53;7.13;;;3.95;;
22007;SDS011;11168;56.976;24.168;2022-09-17T02:43:31;7.90;;;3.72;;
22007;SDS011;11168;56.976;24.168;2022-09-17T02:46:09;5.28;;;3.67;;
22007;SDS011;11168;56.976;24.168;2022-09-17T02:51:32;6.20;;;3.88;;
22007;SDS011;11168;56.976;24.168;2022-09-17T02:56:51;6.35;;;3.63;;
22007;SDS011;11168;56.976;24.168;2022-09-17T02:59:30;6.38;;;3.72;;
22007;SDS011;11168;56.976;24.168;2022-09-17T03:02:17;9.87;;;3.70;;
22007;SDS011;11168;56.976;24.168;2022-09-17T03:04:46;7.97;;;3.75;;
22007;SDS011;11168;56.976;24.168;2022-09-17T03:07:15;7.55;;;3.47;;
22007;SDS011;11168;56.976;24.168;2022-09-17T03:09:43;5.03;;;3.50;;
22007;SDS011;11168;56.976;24.168;2022-09-17T03:12:10;7.20;;;3.50;;
22007;SDS011;11168;56.976;24.168;2022-09-17T03:14:38;6.75;;;3.70;;
22007;SDS011;11168;56.976;24.168;2022-09-17T03:17:05;4.43;;;3.40;;
22007;SDS011;11168;56.976;24.168;2022-09-17T03:19:33;6.07;;;3.60;;
22007;SDS011;11168;56.976;24.168;2022-09-17T03:22:00;4.45;;;3.67;;
22007;SDS011;11168;56.976;24.168;2022-09-17T03:24:27;7.07;;;3.60;;
22007;SDS011;11168;56.976;24.168;2022-09-17T03:26:55;6.10;;;3.95;;
22007;SDS011;11168;56.976;24.168;2022-09-17T03:29:22;4.70;;;4.03;;
22007;SDS011;11168;56.976;24.168;2022-09-17T03:31:49;5.78;;;4.22;;
22007;SDS011;11168;56.976;24.168;2022-09-17T03:34:17;5.78;;;4.35;;
22007;SDS011;11168;56.976;24.168;2022-09-17T03:36:44;5.50;;;4.25;;
22007;SDS011;11168;56.976;24.168;2022-09-17T03:39:12;7.70;;;4.03;;
22007;SDS011;11168;56.976;24.168;2022-09-17T03:41:39;7.20;;;4.68;;
22007;SDS011;11168;56.976;24.168;2022-09-17T03:44:06;5.82;;;4.18;;
22007;SDS011;11168;56.976;24.168;2022-09-17T03:46:35;7.63;;;4.78;;
22007;SDS011;11168;56.976;24.168;2022-09-17T03:49:03;6.88;;;5.10;;
22007;SDS011;11168;56.976;24.168;2022-09-17T03:51:30;9.98;;;4.53;;
22007;SDS011;11168;56.976;24.168;2022-09-17T03:53:57;7.15;;;5.05;;
22007;SDS011;11168;56.976;24.168;2022-09-17T03:56:25;8.15;;;5.00;;
22007;SDS011;11168;56.976;24.168;2022-09-17T03:58:55;7.75;;;4.70;;
22007;SDS011;11168;56.976;24.168;2022-09-17T04:01:23;5.25;;;4.40;;
22007;SDS011;11168;56.976;24.168;2022-09-17T04:03:50;9.18;;;5.15;;
22007;SDS011;11168;56.976;24.168;2022-09-17T04:06:18;5.97;;;4.70;;
22007;SDS011;11168;56.976;24.168;2022-09-17T04:08:45;6.95;;;4.45;;
22007;SDS011;11168;56.976;24.168;2022-09-17T04:11:12;5.20;;;4.70;;
22007;SDS011;11168;56.976;24.168;2022-09-17T04:13:40;7.95;;;5.32;;
22007;SDS011;11168;56.976;24.168;2022-09-17T04:16:07;9.77;;;5.53;;
22007;SDS011;11168;56.976;24.168;2022-09-17T04:18:35;5.72;;;4.03;;
22007;SDS011;11168;56.976;24.168;2022-09-17T04:21:02;7.55;;;4.97;;
22007;SDS011;11168;56.976;24.168;2022-09-17T04:23:29;14.55;;;5.40;;
22007;SDS011;11168;56.976;24.168;2022-09-17T04:25:56;5.70;;;4.70;;
22007;SDS011;11168;56.976;24.168;2022-09-17T04:28:24;7.47;;;4.97;;
22007;SDS011;11168;56.976;24.168;2022-09-17T04:30:51;5.22;;;4.40;;
22007;SDS011;11168;56.976;24.168;2022-09-17T04:33:19;9.60;;;4.95;;
22007;SDS011;11168;56.976;24.168;2022-09-17T04:35:46;8.00;;;5.38;;
22007;SDS011;11168;56.976;24.168;2022-09-17T04:38:14;9.93;;;5.07;;
22007;SDS011;11168;56.976;24.168;2022-09-17T04:40:46;8.77;;;4.93;;
22007;SDS011;11168;56.976;24.168;2022-09-17T04:43:13;9.30;;;5.85;;
22007;SDS011;11168;56.976;24.168;2022-09-17T04:45:43;9.88;;;5.90;;
22007;SDS011;11168;56.976;24.168;2022-09-17T04:48:11;7.45;;;5.88;;
22007;SDS011;11168;56.976;24.168;2022-09-17T04:50:38;7.63;;;5.35;;
22007;SDS011;11168;56.976;24.168;2022-09-17T04:53:06;9.60;;;5.65;;
22007;SDS011;11168;56.976;24.168;2022-09-17T04:55:33;8.40;;;5.47;;
22007;SDS011;11168;56.976;24.168;2022-09-17T04:58:00;8.43;;;5.60;;
22007;SDS011;11168;56.976;24.168;2022-09-17T05:00:27;8.32;;;5.65;;
22007;SDS011;11168;56.976;24.168;2022-09-17T05:02:55;11.57;;;4.88;;
22007;SDS011;11168;56.976;24.168;2022-09-17T05:05:22;8.00;;;5.95;;
22007;SDS011;11168;56.976;24.168;2022-09-17T05:07:49;9.98;;;6.72;;
22007;SDS011;11168;56.976;24.168;2022-09-17T05:10:18;10.18;;;7.28;;
22007;SDS011;11168;56.976;24.168;2022-09-17T05:12:49;8.15;;;6.30;;
22007;SDS011;11168;56.976;24.168;2022-09-17T05:15:16;9.55;;;6.57;;
22007;SDS011;11168;56.976;24.168;2022-09-17T05:17:45;7.90;;;6.13;;
22007;SDS011;11168;56.976;24.168;2022-09-17T05:20:13;7.93;;;6.95;;
22007;SDS011;11168;56.976;24.168;2022-09-17T05:22:41;7.95;;;6.22;;
22007;SDS011;11168;56.976;24.168;2022-09-17T05:25:09;9.45;;;6.05;;
22007;SDS011;11168;56.976;24.168;2022-09-17T05:27:37;5.90;;;5.20;;
22007;SDS011;11168;56.976;24.168;2022-09-17T05:30:05;6.53;;;5.15;;
22007;SDS011;11168;56.976;24.168;2022-09-17T05:32:33;4.70;;;4.25;;
22007;SDS011;11168;56.976;24.168;2022-09-17T05:35:01;8.60;;;4.68;;
22007;SDS011;11168;56.976;24.168;2022-09-17T05:37:31;7.63;;;4.90;;
22007;SDS011;11168;56.976;24.168;2022-09-17T05:39:58;6.45;;;4.53;;
22007;SDS011;11168;56.976;24.168;2022-09-17T05:42:25;4.25;;;3.75;;
22007;SDS011;11168;56.976;24.168;2022-09-17T05:44:53;5.25;;;3.00;;
22007;SDS011;11168;56.976;24.168;2022-09-17T05:47:20;2.95;;;2.67;;
22007;SDS011;11168;56.976;24.168;2022-09-17T05:49:47;3.85;;;2.80;;
22007;SDS011;11168;56.976;24.168;2022-09-17T05:52:15;4.72;;;2.63;;
22007;SDS011;11168;56.976;24.168;2022-09-17T05:54:42;2.65;;;2.45;;
22007;SDS011;11168;56.976;24.168;2022-09-17T05:57:10;5.75;;;2.92;;
22007;SDS011;11168;56.976;24.168;2022-09-17T05:59:37;3.53;;;2.22;;
22007;SDS011;11168;56.976;24.168;2022-09-17T06:02:04;4.85;;;2.20;;
22007;SDS011;11168;56.976;24.168;2022-09-17T06:04:31;3.88;;;2.72;;
22007;SDS011;11168;56.976;24.168;2022-09-17T06:07:02;4.32;;;2.60;;
22007;SDS011;11168;56.976;24.168;2022-09-17T06:09:35;5.03;;;2.70;;
22007;SDS011;11168;56.976;24.168;2022-09-17T06:12:03;4.10;;;2.42;;
22007;SDS011;11168;56.976;24.168;2022-09-17T06:14:31;4.50;;;3.00;;
22007;SDS011;11168;56.976;24.168;2022-09-17T06:16:58;4.57;;;2.70;;
22007;SDS011;11168;56.976;24.168;2022-09-17T06:19:26;5.43;;;2.63;;
22007;SDS011;11168;56.976;24.168;2022-09-17T06:21:54;7.95;;;2.83;;
22007;SDS011;11168;56.976;24.168;2022-09-17T06:24:21;4.80;;;2.80;;
22007;SDS011;11168;56.976;24.168;2022-09-17T06:26:48;7.25;;;2.78;;
22007;SDS011;11168;56.976;24.168;2022-09-17T06:29:17;4.38;;;2.80;;
22007;SDS011;11168;56.976;24.168;2022-09-17T06:31:46;4.03;;;2.50;;
22007;SDS011;11168;56.976;24.168;2022-09-17T06:34:13;2.70;;;2.22;;
22007;SDS011;11168;56.976;24.168;2022-09-17T06:36:41;7.43;;;2.78;;
22007;SDS011;11168;56.976;24.168;2022-09-17T06:39:08;4.97;;;2.33;;
22007;SDS011;11168;56.976;24.168;2022-09-17T06:41:37;4.00;;;2.40;;
22007;SDS011;11168;56.976;24.168;2022-09-17T06:44:07;5.15;;;2.38;;
22007;SDS011;11168;56.976;24.168;2022-09-17T06:46:34;4.32;;;1.88;;
22007;SDS011;11168;56.976;24.168;2022-09-17T06:49:02;4.70;;;1.92;;
22007;SDS011;11168;56.976;24.168;2022-09-17T06:51:29;2.78;;;2.03;;
22007;SDS011;11168;56.976;24.168;2022-09-17T06:53:57;3.50;;;1.95;;
22007;SDS011;11168;56.976;24.168;2022-09-17T06:56:24;3.05;;;2.00;;
22007;SDS011;11168;56.976;24.168;2022-09-17T06:58:52;3.15;;;2.38;;
22007;SDS011;11168;56.976;24.168;2022-09-17T07:01:19;6.40;;;4.03;;
22007;SDS011;11168;56.976;24.168;2022-09-17T07:03:47;2.33;;;1.75;;
22007;SDS011;11168;56.976;24.168;2022-09-17T07:06:15;4.13;;;2.15;;
22007;SDS011;11168;56.976;24.168;2022-09-17T07:08:42;4.07;;;1.70;;
22007;SDS011;11168;56.976;24.168;2022-09-17T07:11:09;2.95;;;2.03;;
22007;SDS011;11168;56.976;24.168;2022-09-17T07:13:37;3.65;;;1.30;;
22007;SDS011;11168;56.976;24.168;2022-09-17T07:16:04;4.50;;;1.60;;
22007;SDS011;11168;56.976;24.168;2022-09-17T07:18:33;2.13;;;1.52;;
22007;SDS011;11168;56.976;24.168;2022-09-17T07:21:03;4.95;;;1.40;;
22007;SDS011;11168;56.976;24.168;2022-09-17T07:23:32;4.70;;;1.45;;
22007;SDS011;11168;56.976;24.168;2022-09-17T07:26:06;1.63;;;1.33;;
22007;SDS011;11168;56.976;24.168;2022-09-17T07:28:33;2.97;;;1.48;;
22007;SDS011;11168;56.976;24.168;2022-09-17T07:31:03;2.15;;;1.50;;
22007;SDS011;11168;56.976;24.168;2022-09-17T07:33:32;2.17;;;1.17;;
22007;SDS011;11168;56.976;24.168;2022-09-17T07:36:01;1.52;;;1.20;;
22007;SDS011;11168;56.976;24.168;2022-09-17T07:38:28;2.22;;;1.30;;
22007;SDS011;11168;56.976;24.168;2022-09-17T07:41:00;3.38;;;1.65;;
22007;SDS011;11168;56.976;24.168;2022-09-17T07:43:29;1.88;;;1.17;;
22007;SDS011;11168;56.976;24.168;2022-09-17T07:45:57;3.83;;;0.93;;
22007;SDS011;11168;56.976;24.168;2022-09-17T07:48:24;2.25;;;1.20;;
22007;SDS011;11168;56.976;24.168;2022-09-17T07:50:52;4.38;;;1.10;;
22007;SDS011;11168;56.976;24.168;2022-09-17T07:53:21;3.00;;;1.02;;
22007;SDS011;11168;56.976;24.168;2022-09-17T07:55:52;4.63;;;1.05;;
22007;SDS011;11168;56.976;24.168;2022-09-17T07:58:20;1.67;;;0.90;;
22007;SDS011;11168;56.976;24.168;2022-09-17T08:00:48;4.88;;;1.17;;
22007;SDS011;11168;56.976;24.168;2022-09-17T08:03:16;1.58;;;1.02;;
22007;SDS011;11168;56.976;24.168;2022-09-17T08:05:43;2.17;;;1.10;;
22007;SDS011;11168;56.976;24.168;2022-09-17T08:08:11;6.00;;;1.30;;
22007;SDS011;11168;56.976;24.168;2022-09-17T08:10:40;2.63;;;1.20;;
22007;SDS011;11168;56.976;24.168;2022-09-17T08:13:08;4.97;;;1.02;;
22007;SDS011;11168;56.976;24.168;2022-09-17T08:15:35;1.45;;;0.93;;
22007;SDS011;11168;56.976;24.168;2022-09-17T08:18:02;1.90;;;0.80;;
22007;SDS011;11168;56.976;24.168;2022-09-17T08:20:30;1.17;;;0.95;;
22007;SDS011;11168;56.976;24.168;2022-09-17T08:22:58;3.33;;;0.80;;
22007;SDS011;11168;56.976;24.168;2022-09-17T08:25:25;3.45;;;0.60;;
22007;SDS011;11168;56.976;24.168;2022-09-17T08:27:53;5.32;;;0.95;;
22007;SDS011;11168;56.976;24.168;2022-09-17T08:30:21;1.95;;;0.80;;
22007;SDS011;11168;56.976;24.168;2022-09-17T08:32:49;0.70;;;0.63;;
22007;SDS011;11168;56.976;24.168;2022-09-17T08:35:16;1.17;;;0.60;;
22007;SDS011;11168;56.976;24.168;2022-09-17T08:37:44;1.98;;;0.73;;
22007;SDS011;11168;56.976;24.168;2022-09-17T08:40:14;1.83;;;0.70;;
22007;SDS011;11168;56.976;24.168;2022-09-17T08:42:52;1.60;;;0.60;;
22007;SDS011;11168;56.976;24.168;2022-09-17T08:45:22;1.15;;;0.73;;
22007;SDS011;11168;56.976;24.168;2022-09-17T08:47:52;2.35;;;0.88;;
22007;SDS011;11168;56.976;24.168;2022-09-17T08:50:26;0.60;;;0.60;;
22007;SDS011;11168;56.976;24.168;2022-09-17T08:53:12;0.93;;;0.63;;
22007;SDS011;11168;56.976;24.168;2022-09-17T08:55:43;1.05;;;0.63;;
22007;SDS011;11168;56.976;24.168;2022-09-17T09:06:08;1.70;;;0.50;;
22007;SDS011;11168;56.976;24.168;2022-09-17T09:08:38;1.88;;;0.50;;
22007;SDS011;11168;56.976;24.168;2022-09-17T09:11:20;3.13;;;0.80;;
22007;SDS011;11168;56.976;24.168;2022-09-17T09:13:56;4.50;;;0.70;;
22007;SDS011;11168;56.976;24.168;2022-09-17T09:16:27;2.10;;;0.60;;
22007;SDS011;11168;56.976;24.168;2022-09-17T09:18:59;1.48;;;0.70;;
22007;SDS011;11168;56.976;24.168;2022-09-17T09:21:29;0.98;;;0.50;;
22007;SDS011;11168;56.976;24.168;2022-09-17T09:34:14;1.15;;;0.50;;
22007;SDS011;11168;56.976;24.168;2022-09-17T09:36:42;1.67;;;0.40;;
22007;SDS011;11168;56.976;24.168;2022-09-17T09:39:19;0.43;;;0.30;;
22007;SDS011;11168;56.976;24.168;2022-09-17T09:44:19;1.13;;;0.43;;
22007;SDS011;11168;56.976;24.168;2022-09-17T09:57:08;2.35;;;0.47;;
22007;SDS011;11168;56.976;24.168;2022-09-17T09:59:37;1.65;;;0.52;;
22007;SDS011;11168;56.976;24.168;2022-09-17T10:02:06;0.30;;;0.30;;
22007;SDS011;11168;56.976;24.168;2022-09-17T10:04:34;0.80;;;0.32;;
22007;SDS011;11168;56.976;24.168;2022-09-17T10:07:06;0.30;;;0.30;;
22007;SDS011;11168;56.976;24.168;2022-09-17T10:09:35;0.30;;;0.30;;
22007;SDS011;11168;56.976;24.168;2022-09-17T10:14:37;0.77;;;0.60;;
22007;SDS011;11168;56.976;24.168;2022-09-17T10:17:20;1.17;;;0.50;;
22007;SDS011;11168;56.976;24.168;2022-09-17T10:25:00;1.35;;;0.60;;
22007;SDS011;11168;56.976;24.168;2022-09-17T10:27:27;2.15;;;0.75;;
22007;SDS011;11168;56.976;24.168;2022-09-17T10:30:17;1.70;;;0.50;;
22007;SDS011;11168;56.976;24.168;2022-09-17T10:32:44;2.08;;;0.65;;
22007;SDS011;11168;56.976;24.168;2022-09-17T10:35:30;4.55;;;0.90;;
22007;SDS011;11168;56.976;24.168;2022-09-17T10:37:59;1.85;;;0.57;;
22007;SDS011;11168;56.976;24.168;2022-09-17T10:40:27;0.63;;;0.40;;
22007;SDS011;11168;56.976;24.168;2022-09-17T10:43:17;1.10;;;0.52;;
22007;SDS011;11168;56.976;24.168;2022-09-17T10:45:44;0.90;;;0.50;;
22007;SDS011;11168;56.976;24.168;2022-09-17T10:48:19;0.30;;;0.30;;
22007;SDS011;11168;56.976;24.168;2022-09-17T10:50:53;2.42;;;0.50;;
22007;SDS011;11168;56.976;24.168;2022-09-17T10:53:21;1.45;;;0.50;;
22007;SDS011;11168;56.976;24.168;2022-09-17T11:06:24;0.45;;;0.30;;
22007;SDS011;11168;56.976;24.168;2022-09-17T11:21:47;0.93;;;0.38;;
22007;SDS011;11168;56.976;24.168;2022-09-17T11:27:05;3.55;;;0.40;;
22007;SDS011;11168;56.976;24.168;2022-09-17T11:32:13;2.10;;;0.40;;
22007;SDS011;11168;56.976;24.168;2022-09-17T11:40:21;1.35;;;0.40;;
22007;SDS011;11168;56.976;24.168;2022-09-17T11:42:54;0.60;;;0.20;;
22007;SDS011;11168;56.976;24.168;2022-09-17T11:45:26;0.60;;;0.30;;
22007;SDS011;11168;56.976;24.168;2022-09-17T11:47:57;0.88;;;0.40;;
22007;SDS011;11168;56.976;24.168;2022-09-17T11:50:30;0.47;;;0.40;;
22007;SDS011;11168;56.976;24.168;2022-09-17T11:55:31;0.35;;;0.25;;
22007;SDS011;11168;56.976;24.168;2022-09-17T11:58:01;1.20;;;0.32;;
22007;SDS011;11168;56.976;24.168;2022-09-17T12:00:28;1.20;;;0.47;;
22007;SDS011;11168;56.976;24.168;2022-09-17T12:05:33;1.98;;;0.50;;
22007;SDS011;11168;56.976;24.168;2022-09-17T12:08:17;0.70;;;0.30;;
22007;SDS011;11168;56.976;24.168;2022-09-17T12:10:50;1.92;;;0.30;;
22007;SDS011;11168;56.976;24.168;2022-09-17T12:16:26;1.65;;;0.30;;
22007;SDS011;11168;56.976;24.168;2022-09-17T12:18:56;2.10;;;0.45;;
22007;SDS011;11168;56.976;24.168;2022-09-17T12:24:06;2.40;;;0.30;;
22007;SDS011;11168;56.976;24.168;2022-09-17T12:34:48;0.75;;;0.38;;
22007;SDS011;11168;56.976;24.168;2022-09-17T12:53:14;2.47;;;0.60;;
22007;SDS011;11168;56.976;24.168;2022-09-17T12:55:55;1.05;;;0.60;;
22007;SDS011;11168;56.976;24.168;2022-09-17T13:01:21;0.55;;;0.38;;
22007;SDS011;11168;56.976;24.168;2022-09-17T13:03:49;0.65;;;0.40;;
22007;SDS011;11168;56.976;24.168;2022-09-17T13:11:53;2.20;;;0.88;;
22007;SDS011;11168;56.976;24.168;2022-09-17T13:22:32;2.15;;;0.80;;
22007;SDS011;11168;56.976;24.168;2022-09-17T13:25:10;2.03;;;0.70;;
22007;SDS011;11168;56.976;24.168;2022-09-17T13:27:38;2.72;;;1.08;;
22007;SDS011;11168;56.976;24.168;2022-09-17T13:30:09;2.77;;;1.23;;
22007;SDS011;11168;56.976;24.168;2022-09-17T13:37:36;6.63;;;1.90;;
22007;SDS011;11168;56.976;24.168;2022-09-17T13:40:05;4.28;;;1.40;;
22007;SDS011;11168;56.976;24.168;2022-09-17T13:42:48;3.13;;;0.90;;
22007;SDS011;11168;56.976;24.168;2022-09-17T13:45:17;3.22;;;1.02;;
22007;SDS011;11168;56.976;24.168;2022-09-17T13:58:12;2.00;;;0.90;;
22007;SDS011;11168;56.976;24.168;2022-09-17T14:11:57;2.25;;;0.90;;
22007;SDS011;11168;56.976;24.168;2022-09-17T14:16:43;2.53;;;1.13;;
22007;SDS011;11168;56.976;24.168;2022-09-17T14:24:23;1.83;;;1.17;;
22007;SDS011;11168;56.976;24.168;2022-09-17T14:29:32;2.97;;;1.33;;
22007;SDS011;11168;56.976;24.168;2022-09-17T14:32:07;1.95;;;1.40;;
22007;SDS011;11168;56.976;24.168;2022-09-17T14:34:38;2.60;;;1.73;;
22007;SDS011;11168;56.976;24.168;2022-09-17T14:37:07;3.33;;;1.27;;
22007;SDS011;11168;56.976;24.168;2022-09-17T14:39:36;2.07;;;1.27;;
22007;SDS011;11168;56.976;24.168;2022-09-17T14:42:08;3.83;;;1.50;;
22007;SDS011;11168;56.976;24.168;2022-09-17T14:44:45;2.05;;;1.42;;
22007;SDS011;11168;56.976;24.168;2022-09-17T14:47:14;4.13;;;1.60;;
22007;SDS011;11168;56.976;24.168;2022-09-17T14:49:43;2.58;;;1.40;;
22007;SDS011;11168;56.976;24.168;2022-09-17T14:57:37;2.47;;;1.30;;
22007;SDS011;11168;56.976;24.168;2022-09-17T15:00:05;2.75;;;1.60;;
22007;SDS011;11168;56.976;24.168;2022-09-17T15:05:16;2.63;;;1.40;;
22007;SDS011;11168;56.976;24.168;2022-09-17T15:07:44;3.88;;;1.20;;
22007;SDS011;11168;56.976;24.168;2022-09-17T15:10:14;1.27;;;1.17;;
22007;SDS011;11168;56.976;24.168;2022-09-17T15:12:42;3.03;;;1.23;;
22007;SDS011;11168;56.976;24.168;2022-09-17T15:15:17;1.48;;;1.20;;
22007;SDS011;11168;56.976;24.168;2022-09-17T15:17:45;1.33;;;1.10;;
22007;SDS011;11168;56.976;24.168;2022-09-17T15:20:17;1.60;;;1.00;;
22007;SDS011;11168;56.976;24.168;2022-09-17T15:22:47;1.52;;;0.90;;
22007;SDS011;11168;56.976;24.168;2022-09-17T15:25:19;1.48;;;1.30;;
22007;SDS011;11168;56.976;24.168;2022-09-17T15:27:49;1.60;;;1.02;;
22007;SDS011;11168;56.976;24.168;2022-09-17T15:30:18;3.08;;;1.10;;
22007;SDS011;11168;56.976;24.168;2022-09-17T15:32:52;1.63;;;1.02;;
22007;SDS011;11168;56.976;24.168;2022-09-17T15:35:22;1.95;;;1.20;;
22007;SDS011;11168;56.976;24.168;2022-09-17T15:37:53;3.95;;;1.10;;
22007;SDS011;11168;56.976;24.168;2022-09-17T15:40:41;2.53;;;1.27;;
22007;SDS011;11168;56.976;24.168;2022-09-17T15:43:21;2.20;;;1.20;;
22007;SDS011;11168;56.976;24.168;2022-09-17T15:45:52;2.65;;;1.30;;
22007;SDS011;11168;56.976;24.168;2022-09-17T15:50:51;4.18;;;1.58;;
22007;SDS011;11168;56.976;24.168;2022-09-17T15:53:20;2.20;;;1.30;;
22007;SDS011;11168;56.976;24.168;2022-09-17T15:58:28;1.88;;;1.35;;
22007;SDS011;11168;56.976;24.168;2022-09-17T16:11:15;4.22;;;2.20;;
22007;SDS011;11168;56.976;24.168;2022-09-17T16:13:45;5.50;;;2.30;;
22007;SDS011;11168;56.976;24.168;2022-09-17T16:16:14;3.60;;;2.35;;
22007;SDS011;11168;56.976;24.168;2022-09-17T16:18:41;4.47;;;2.08;;
22007;SDS011;11168;56.976;24.168;2022-09-17T16:21:09;5.28;;;2.25;;
22007;SDS011;11168;56.976;24.168;2022-09-17T16:23:36;4.60;;;2.10;;
22007;SDS011;11168;56.976;24.168;2022-09-17T16:26:04;3.05;;;2.08;;
22007;SDS011;11168;56.976;24.168;2022-09-17T16:28:32;4.50;;;2.00;;
22007;SDS011;11168;56.976;24.168;2022-09-17T16:30:59;4.25;;;2.33;;
22007;SDS011;11168;56.976;24.168;2022-09-17T16:33:27;3.10;;;2.22;;
22007;SDS011;11168;56.976;24.168;2022-09-17T16:35:57;4.25;;;1.90;;
22007;SDS011;11168;56.976;24.168;2022-09-17T16:38:25;6.90;;;2.30;;
22007;SDS011;11168;56.976;24.168;2022-09-17T16:40:52;3.05;;;2.10;;
22007;SDS011;11168;56.976;24.168;2022-09-17T16:43:19;2.75;;;2.15;;
22007;SDS011;11168;56.976;24.168;2022-09-17T16:45:57;4.53;;;2.33;;
22007;SDS011;11168;56.976;24.168;2022-09-17T16:48:24;4.40;;;2.85;;
22007;SDS011;11168;56.976;24.168;2022-09-17T16:50:52;4.50;;;2.78;;
22007;SDS011;11168;56.976;24.168;2022-09-17T16:53:19;5.45;;;2.67;;
22007;SDS011;11168;56.976;24.168;2022-09-17T16:55:46;3.35;;;2.22;;
22007;SDS011;11168;56.976;24.168;2022-09-17T16:58:14;3.95;;;2.55;;
22007;SDS011;11168;56.976;24.168;2022-09-17T17:00:41;2.88;;;2.13;;
22007;SDS011;11168;56.976;24.168;2022-09-17T17:03:12;3.80;;;2.42;;
22007;SDS011;11168;56.976;24.168;2022-09-17T17:05:40;3.88;;;2.38;;
22007;SDS011;11168;56.976;24.168;2022-09-17T17:08:08;2.83;;;2.33;;
22007;SDS011;11168;56.976;24.168;2022-09-17T17:10:36;4.38;;;2.42;;
22007;SDS011;11168;56.976;24.168;2022-09-17T17:13:04;3.08;;;2.03;;
22007;SDS011;11168;56.976;24.168;2022-09-17T17:15:31;3.63;;;2.22;;
22007;SDS011;11168;56.976;24.168;2022-09-17T17:17:59;3.65;;;2.45;;
22007;SDS011;11168;56.976;24.168;2022-09-17T17:20:26;4.43;;;2.40;;
22007;SDS011;11168;56.976;24.168;2022-09-17T17:22:53;4.20;;;2.50;;
22007;SDS011;11168;56.976;24.168;2022-09-17T17:25:21;3.53;;;2.30;;
22007;SDS011;11168;56.976;24.168;2022-09-17T17:27:49;4.80;;;2.70;;
22007;SDS011;11168;56.976;24.168;2022-09-17T17:30:16;6.82;;;2.60;;
22007;SDS011;11168;56.976;24.168;2022-09-17T17:32:44;4.43;;;2.63;;
22007;SDS011;11168;56.976;24.168;2022-09-17T17:35:14;3.65;;;2.72;;
22007;SDS011;11168;56.976;24.168;2022-09-17T17:37:42;6.85;;;3.03;;
22007;SDS011;11168;56.976;24.168;2022-09-17T17:40:09;4.90;;;3.13;;
22007;SDS011;11168;56.976;24.168;2022-09-17T17:42:37;8.82;;;3.05;;
22007;SDS011;11168;56.976;24.168;2022-09-17T17:45:07;5.32;;;2.70;;
22007;SDS011;11168;56.976;24.168;2022-09-17T17:47:34;5.18;;;3.08;;
22007;SDS011;11168;56.976;24.168;2022-09-17T17:50:02;4.03;;;2.90;;
22007;SDS011;11168;56.976;24.168;2022-09-17T17:52:29;7.90;;;3.90;;
22007;SDS011;11168;56.976;24.168;2022-09-17T17:54:57;6.30;;;3.88;;
22007;SDS011;11168;56.976;24.168;2022-09-17T17:57:24;6.18;;;3.63;;
22007;SDS011;11168;56.976;24.168;2022-09-17T17:59:51;6.85;;;3.92;;
22007;SDS011;11168;56.976;24.168;2022-09-17T18:02:18;11.05;;;4.50;;
22007;SDS011;11168;56.976;24.168;2022-09-17T18:04:46;7.05;;;4.07;;
22007;SDS011;11168;56.976;24.168;2022-09-17T18:07:13;6.07;;;3.40;;
22007;SDS011;11168;56.976;24.168;2022-09-17T18:09:40;6.90;;;4.03;;
22007;SDS011;11168;56.976;24.168;2022-09-17T18:12:08;12.48;;;4.75;;
22007;SDS011;11168;56.976;24.168;2022-09-17T18:14:35;6.95;;;4.50;;
22007;SDS011;11168;56.976;24.168;2022-09-17T18:17:02;6.60;;;4.22;;
22007;SDS011;11168;56.976;24.168;2022-09-17T18:19:30;8.18;;;4.35;;
22007;SDS011;11168;56.976;24.168;2022-09-17T18:21:57;7.20;;;4.47;;
22007;SDS011;11168;56.976;24.168;2022-09-17T18:24:24;6.47;;;4.50;;
22007;SDS011;11168;56.976;24.168;2022-09-17T18:26:52;6.25;;;4.35;;
22007;SDS011;11168;56.976;24.168;2022-09-17T18:29:19;7.15;;;4.22;;
22007;SDS011;11168;56.976;24.168;2022-09-17T18:31:46;7.68;;;4.05;;
22007;SDS011;11168;56.976;24.168;2022-09-17T18:34:14;6.25;;;3.72;;
22007;SDS011;11168;56.976;24.168;2022-09-17T18:36:42;6.45;;;4.40;;
22007;SDS011;11168;56.976;24.168;2022-09-17T18:39:16;9.48;;;4.70;;